createdAt,value
2022-08-26T00:00:01.175Z,3.42
2022-08-26T00:00:33.412Z,3.10
2022-08-26T00:01:08.630Z,4.22
2022-08-26T00:01:44.051Z,3.13
2022-08-26T00:02:16.607Z,3.55
2022-08-26T00:02:52.685Z,4.32
2022-08-26T00:03:24.766Z,3.20
2022-08-26T00:03:56.879Z,3.33
2022-08-26T00:04:32.006Z,3.38
2022-08-26T00:05:04.261Z,3.83
2022-08-26T00:05:36.506Z,3.50
2022-08-26T00:06:09.563Z,2.95
2022-08-26T00:06:46.311Z,3.45
2022-08-26T00:07:18.855Z,3.97
2022-08-26T00:07:50.946Z,3.05
2022-08-26T00:08:23.533Z,3.72
2022-08-26T00:08:55.613Z,3.83
2022-08-26T00:09:27.765Z,3.10
2022-08-26T00:10:00.344Z,3.45
2022-08-26T00:10:32.423Z,3.60
2022-08-26T00:11:04.605Z,3.28
2022-08-26T00:11:36.902Z,3.28
2022-08-26T00:12:12.277Z,3.75
2022-08-26T00:12:44.651Z,4.03
2022-08-26T00:13:16.810Z,4.38
2022-08-26T00:13:51.666Z,4.22
2022-08-26T00:14:31.243Z,3.20
2022-08-26T00:15:05.557Z,3.13
2022-08-26T00:15:38.477Z,3.33
2022-08-26T00:16:10.863Z,3.03
2022-08-26T00:16:48.093Z,3.25
2022-08-26T00:17:20.786Z,4.30
2022-08-26T00:17:53.436Z,3.35
2022-08-26T00:18:25.550Z,3.50
2022-08-26T00:18:58.094Z,3.22
2022-08-26T00:19:30.139Z,3.38
2022-08-26T00:20:02.652Z,3.45
2022-08-26T00:20:35.354Z,5.07
2022-08-26T00:21:08.285Z,3.13
2022-08-26T00:21:40.268Z,3.58
2022-08-26T00:22:12.256Z,2.95
2022-08-26T00:22:44.344Z,3.33
2022-08-26T00:23:16.369Z,3.25
2022-08-26T00:23:48.422Z,4.68
2022-08-26T00:24:20.909Z,3.30
2022-08-26T00:24:53.189Z,3.47
2022-08-26T00:25:25.900Z,3.05
2022-08-26T00:25:57.920Z,4.13
2022-08-26T00:26:30.858Z,3.55
2022-08-26T00:27:02.912Z,2.97
2022-08-26T00:27:35.494Z,3.80
2022-08-26T00:28:07.575Z,3.30
2022-08-26T00:28:42.982Z,3.20
2022-08-26T00:29:15.064Z,3.50
2022-08-26T00:29:47.140Z,3.40
2022-08-26T00:30:22.952Z,3.72
2022-08-26T00:30:56.330Z,3.33
2022-08-26T00:31:28.732Z,3.55
2022-08-26T00:32:03.972Z,3.00
2022-08-26T00:32:36.203Z,3.33
2022-08-26T00:33:09.814Z,3.08
2022-08-26T00:33:43.122Z,3.10
2022-08-26T00:34:16.817Z,2.83
2022-08-26T00:34:51.641Z,2.78
2022-08-26T00:35:24.643Z,2.90
2022-08-26T00:36:01.657Z,3.30
2022-08-26T00:36:34.508Z,3.55
2022-08-26T00:37:09.464Z,3.65
2022-08-26T00:37:44.544Z,3.13
2022-08-26T00:38:18.618Z,3.10
2022-08-26T00:38:50.923Z,3.53
2022-08-26T00:39:23.612Z,3.20
2022-08-26T00:39:55.678Z,3.67
2022-08-26T00:40:37.230Z,3.00
2022-08-26T00:41:09.214Z,3.30
2022-08-26T00:41:41.304Z,3.90
2022-08-26T00:42:13.464Z,2.90
2022-08-26T00:42:46.022Z,3.13
2022-08-26T00:43:18.754Z,3.40
2022-08-26T00:43:52.422Z,3.10
2022-08-26T00:44:24.902Z,3.83
2022-08-26T00:44:57.407Z,3.00
2022-08-26T00:45:34.255Z,2.97
2022-08-26T00:46:32.685Z,4.07
2022-08-26T00:47:07.880Z,3.17
2022-08-26T00:47:44.986Z,3.20
2022-08-26T00:48:21.489Z,2.90
2022-08-26T00:48:57.727Z,2.72
2022-08-26T00:49:34.468Z,4.15
2022-08-26T00:50:08.542Z,3.05
2022-08-26T00:50:45.608Z,2.63
2022-08-26T00:51:17.715Z,2.90
2022-08-26T00:51:54.605Z,3.17
2022-08-26T00:52:27.081Z,3.15
2022-08-26T00:53:00.503Z,2.80
2022-08-26T00:53:34.660Z,3.35
2022-08-26T00:54:10.742Z,2.85
2022-08-26T00:54:46.936Z,3.30
2022-08-26T00:55:20.934Z,2.83
2022-08-26T00:56:08.318Z,3.40
2022-08-26T00:56:50.152Z,3.38
2022-08-26T00:57:22.970Z,3.05
2022-08-26T00:57:55.299Z,2.92
2022-08-26T00:58:29.047Z,3.03
2022-08-26T00:59:06.190Z,3.00
2022-08-26T00:59:38.930Z,3.30
2022-08-26T01:00:15.775Z,2.85
2022-08-26T01:00:48.201Z,3.03
2022-08-26T01:01:22.955Z,3.42
2022-08-26T01:01:56.846Z,2.50
2022-08-26T01:02:29.041Z,3.10
2022-08-26T01:03:01.953Z,3.35
2022-08-26T01:03:38.356Z,3.08
2022-08-26T01:04:11.820Z,2.92
2022-08-26T01:04:45.093Z,3.60
2022-08-26T01:05:18.234Z,2.72
2022-08-26T01:05:51.571Z,3.08
2022-08-26T01:06:23.627Z,4.10
2022-08-26T01:06:56.441Z,3.10
2022-08-26T01:07:30.104Z,3.25
2022-08-26T01:08:03.626Z,3.10
2022-08-26T01:08:35.882Z,3.28
2022-08-26T01:09:07.942Z,3.47
2022-08-26T01:09:40.668Z,2.55
2022-08-26T01:10:16.032Z,2.85
2022-08-26T01:10:48.130Z,3.28
2022-08-26T01:11:23.061Z,2.58
2022-08-26T01:11:56.884Z,3.05
2022-08-26T01:12:31.707Z,2.72
2022-08-26T01:13:06.231Z,2.90
2022-08-26T01:13:39.216Z,2.92
2022-08-26T01:14:13.566Z,3.13
2022-08-26T01:14:47.199Z,3.47
2022-08-26T01:15:25.807Z,2.80
2022-08-26T01:16:00.750Z,2.95
2022-08-26T01:16:35.613Z,4.43
2022-08-26T01:17:08.240Z,3.17
2022-08-26T01:17:42.554Z,3.20
2022-08-26T01:18:15.970Z,2.95
2022-08-26T01:18:48.506Z,2.45
2022-08-26T01:19:23.785Z,2.83
2022-08-26T01:20:02.658Z,2.85
2022-08-26T01:20:43.984Z,3.20
2022-08-26T01:21:19.048Z,2.83
2022-08-26T01:22:02.458Z,3.17
2022-08-26T01:22:46.704Z,3.40
2022-08-26T01:23:21.715Z,2.78
2022-08-26T01:23:57.620Z,2.35
2022-08-26T01:24:30.365Z,2.65
2022-08-26T01:25:03.525Z,2.60
2022-08-26T01:25:39.336Z,2.63
2022-08-26T01:26:19.529Z,2.75
2022-08-26T01:26:52.696Z,2.63
2022-08-26T01:27:24.803Z,2.42
2022-08-26T01:27:58.456Z,3.28
2022-08-26T01:28:31.849Z,2.30
2022-08-26T01:29:05.194Z,2.80
2022-08-26T01:29:39.169Z,3.88
2022-08-26T01:30:11.897Z,2.75
2022-08-26T01:30:45.072Z,2.95
2022-08-26T01:31:18.320Z,2.60
2022-08-26T01:31:55.259Z,2.60
2022-08-26T01:32:28.333Z,2.88
2022-08-26T01:33:03.025Z,2.80
2022-08-26T01:33:42.109Z,2.55
2022-08-26T01:34:20.117Z,2.60
2022-08-26T01:34:52.813Z,3.05
2022-08-26T01:35:25.022Z,3.20
2022-08-26T01:35:57.080Z,2.95
2022-08-26T01:36:29.471Z,2.50
2022-08-26T01:37:05.305Z,2.40
2022-08-26T01:37:40.331Z,2.75
2022-08-26T01:38:12.891Z,3.00
2022-08-26T01:38:45.175Z,3.03
2022-08-26T01:39:18.253Z,2.55
2022-08-26T01:39:51.823Z,2.78
2022-08-26T01:40:26.163Z,2.35
2022-08-26T01:40:58.495Z,2.63
2022-08-26T01:41:31.184Z,2.20
2022-08-26T01:42:05.717Z,2.60
2022-08-26T01:42:42.671Z,2.72
2022-08-26T01:43:20.033Z,2.65
2022-08-26T01:43:54.517Z,2.50
2022-08-26T01:44:28.291Z,3.22
2022-08-26T01:45:14.830Z,2.90
2022-08-26T01:45:48.215Z,2.63
2022-08-26T01:46:22.574Z,2.88
2022-08-26T01:46:54.927Z,2.97
2022-08-26T01:47:30.096Z,2.78
2022-08-26T01:48:04.454Z,2.40
2022-08-26T01:48:37.074Z,3.47
2022-08-26T01:49:10.079Z,3.35
2022-08-26T01:49:42.997Z,3.42
2022-08-26T01:50:27.513Z,2.85
2022-08-26T01:51:00.829Z,2.72
2022-08-26T01:51:39.781Z,2.50
2022-08-26T01:52:14.314Z,2.90
2022-08-26T01:52:49.958Z,2.38
2022-08-26T01:53:26.759Z,2.60
2022-08-26T01:54:00.953Z,2.40
2022-08-26T01:54:34.755Z,2.30
2022-08-26T01:55:07.234Z,2.60
2022-08-26T01:55:41.665Z,2.97
2022-08-26T01:56:14.543Z,2.60
2022-08-26T01:56:47.270Z,2.65
2022-08-26T01:57:20.184Z,2.78
2022-08-26T01:57:54.671Z,3.25
2022-08-26T01:58:32.707Z,2.60
2022-08-26T01:59:06.663Z,2.53
2022-08-26T01:59:38.706Z,2.50
2022-08-26T02:00:16.271Z,2.30
2022-08-26T02:00:48.425Z,2.40
2022-08-26T02:01:23.952Z,2.95
2022-08-26T02:02:01.469Z,2.33
2022-08-26T02:02:33.475Z,2.50
2022-08-26T02:03:18.542Z,3.20
2022-08-26T02:03:51.367Z,4.18
2022-08-26T02:04:32.236Z,2.92
2022-08-26T02:05:06.123Z,2.30
2022-08-26T02:05:38.456Z,2.38
2022-08-26T02:06:10.627Z,3.13
2022-08-26T02:06:43.247Z,2.53
2022-08-26T02:07:16.855Z,2.50
2022-08-26T02:07:51.502Z,2.03
2022-08-26T02:08:26.061Z,2.72
2022-08-26T02:09:00.102Z,3.17
2022-08-26T02:09:32.879Z,2.45
2022-08-26T02:10:13.737Z,3.25
2022-08-26T02:10:45.844Z,2.35
2022-08-26T02:11:18.683Z,2.65
2022-08-26T02:11:51.873Z,3.13
2022-08-26T02:12:25.875Z,2.45
2022-08-26T02:12:58.011Z,2.78
2022-08-26T02:13:31.520Z,2.20
2022-08-26T02:14:29.719Z,2.35
2022-08-26T02:15:05.845Z,2.47
2022-08-26T02:15:40.655Z,2.45
2022-08-26T02:16:13.175Z,2.30
2022-08-26T02:16:46.622Z,3.17
2022-08-26T02:17:21.629Z,2.75
2022-08-26T02:17:53.913Z,2.33
2022-08-26T02:18:29.409Z,2.45
2022-08-26T02:19:01.983Z,2.42
2022-08-26T02:19:37.394Z,2.55
2022-08-26T02:20:13.196Z,2.40
2022-08-26T02:20:47.027Z,2.15
2022-08-26T02:21:25.062Z,2.17
2022-08-26T02:21:59.208Z,2.28
2022-08-26T02:22:31.394Z,2.28
2022-08-26T02:23:03.617Z,3.25
2022-08-26T02:23:35.927Z,2.97
2022-08-26T02:24:12.441Z,2.30
2022-08-26T02:24:47.228Z,2.25
2022-08-26T02:25:24.965Z,2.88
2022-08-26T02:26:05.744Z,2.53
2022-08-26T02:26:38.683Z,2.13
2022-08-26T02:27:11.183Z,2.20
2022-08-26T02:27:43.149Z,2.25
2022-08-26T02:28:15.777Z,2.63
2022-08-26T02:28:58.379Z,2.53
2022-08-26T02:29:36.759Z,2.75
2022-08-26T02:30:17.457Z,2.35
2022-08-26T02:30:49.810Z,2.33
2022-08-26T02:31:23.441Z,2.22
2022-08-26T02:31:55.792Z,2.58
2022-08-26T02:32:27.881Z,2.13
2022-08-26T02:33:01.524Z,2.00
2022-08-26T02:33:33.543Z,2.42
2022-08-26T02:34:15.178Z,2.58
2022-08-26T02:34:47.215Z,2.17
2022-08-26T02:35:20.535Z,1.88
2022-08-26T02:35:52.507Z,2.50
2022-08-26T02:36:28.461Z,2.92
2022-08-26T02:37:01.921Z,2.45
2022-08-26T02:37:34.070Z,2.30
2022-08-26T02:38:10.240Z,2.40
2022-08-26T02:38:43.264Z,3.17
2022-08-26T02:39:21.913Z,2.10
2022-08-26T02:39:54.301Z,2.50
2022-08-26T02:40:28.409Z,2.30
2022-08-26T02:41:00.656Z,2.28
2022-08-26T02:41:32.737Z,2.50
2022-08-26T02:42:05.392Z,2.97
2022-08-26T02:42:37.804Z,2.47
2022-08-26T02:43:10.190Z,2.30
2022-08-26T02:43:42.459Z,2.83
2022-08-26T02:44:14.630Z,2.70
2022-08-26T02:44:46.581Z,2.85
2022-08-26T02:45:23.045Z,2.42
2022-08-26T02:45:55.463Z,1.98
2022-08-26T02:46:30.011Z,3.03
2022-08-26T02:47:02.227Z,2.47
2022-08-26T02:47:34.420Z,2.10
2022-08-26T02:48:18.873Z,2.50
2022-08-26T02:48:51.174Z,2.42
2022-08-26T02:49:23.808Z,2.63
2022-08-26T02:49:55.789Z,2.22
2022-08-26T02:50:27.848Z,2.30
2022-08-26T02:51:00.865Z,2.55
2022-08-26T02:51:32.923Z,2.47
2022-08-26T02:52:05.390Z,1.95
2022-08-26T02:52:37.678Z,1.88
2022-08-26T02:53:10.134Z,2.20
2022-08-26T02:53:43.475Z,2.88
2022-08-26T02:54:16.290Z,2.42
2022-08-26T02:54:48.249Z,2.40
2022-08-26T02:55:21.680Z,2.05
2022-08-26T02:55:56.786Z,2.75
2022-08-26T02:56:29.373Z,2.25
2022-08-26T02:57:01.358Z,2.15
2022-08-26T02:57:33.866Z,2.58
2022-08-26T02:58:05.809Z,1.90
2022-08-26T02:58:39.050Z,2.28
2022-08-26T02:59:14.297Z,2.88
2022-08-26T02:59:46.307Z,1.90
2022-08-26T03:00:18.405Z,2.40
2022-08-26T03:00:52.983Z,2.30
2022-08-26T03:01:27.355Z,2.03
2022-08-26T03:01:59.615Z,2.53
2022-08-26T03:02:31.873Z,2.20
2022-08-26T03:03:04.267Z,2.65
2022-08-26T03:03:36.337Z,2.25
2022-08-26T03:04:09.924Z,2.80
2022-08-26T03:04:58.042Z,2.80
2022-08-26T03:05:35.577Z,3.42
2022-08-26T03:06:09.463Z,1.85
2022-08-26T03:06:41.864Z,2.03
2022-08-26T03:07:13.840Z,2.30
2022-08-26T03:07:46.139Z,2.00
2022-08-26T03:08:18.591Z,2.72
2022-08-26T03:08:51.033Z,2.00
2022-08-26T03:09:24.250Z,2.42
2022-08-26T03:09:57.128Z,1.88
2022-08-26T03:10:31.500Z,2.75
2022-08-26T03:11:05.129Z,2.22
2022-08-26T03:11:39.316Z,2.22
2022-08-26T03:12:11.807Z,2.17
2022-08-26T03:12:47.363Z,2.00
2022-08-26T03:13:20.103Z,2.28
2022-08-26T03:13:52.419Z,2.25
2022-08-26T03:14:25.752Z,1.88
2022-08-26T03:14:58.602Z,1.90
2022-08-26T03:15:30.624Z,2.00
2022-08-26T03:16:03.080Z,2.00
2022-08-26T03:16:36.476Z,2.13
2022-08-26T03:17:08.765Z,2.30
2022-08-26T03:17:42.624Z,2.15
2022-08-26T03:18:16.193Z,2.45
2022-08-26T03:18:52.472Z,2.30
2022-08-26T03:19:25.211Z,2.40
2022-08-26T03:19:58.347Z,2.30
2022-08-26T03:20:30.378Z,2.03
2022-08-26T03:21:06.654Z,2.83
2022-08-26T03:21:39.116Z,2.17
2022-08-26T03:22:11.088Z,2.33
2022-08-26T03:22:43.189Z,2.20
2022-08-26T03:23:15.238Z,2.05
2022-08-26T03:23:47.287Z,2.17
2022-08-26T03:24:19.531Z,2.50
2022-08-26T03:24:51.714Z,2.03
2022-08-26T03:25:23.960Z,2.10
2022-08-26T03:25:55.915Z,1.90
2022-08-26T03:26:28.770Z,1.95
2022-08-26T03:27:02.000Z,2.42
2022-08-26T03:27:39.241Z,2.38
2022-08-26T03:28:11.236Z,2.42
2022-08-26T03:29:02.226Z,1.73
2022-08-26T03:29:53.039Z,1.85
2022-08-26T03:30:45.481Z,1.98
2022-08-26T03:31:18.111Z,1.90
2022-08-26T03:31:50.319Z,2.17
2022-08-26T03:32:22.744Z,2.65
2022-08-26T03:32:59.019Z,1.88
2022-08-26T03:33:31.040Z,2.10
2022-08-26T03:34:04.196Z,4.82
2022-08-26T03:34:36.518Z,4.30
2022-08-26T03:35:08.753Z,5.80
2022-08-26T03:35:41.731Z,5.72
2022-08-26T03:36:13.837Z,5.47
2022-08-26T03:36:46.778Z,6.32
2022-08-26T03:37:19.189Z,6.13
2022-08-26T03:37:52.201Z,4.95
2022-08-26T03:38:27.194Z,5.07
2022-08-26T03:38:59.264Z,4.78
2022-08-26T03:39:31.585Z,5.88
2022-08-26T03:40:05.056Z,4.65
2022-08-26T03:40:37.872Z,6.30
2022-08-26T03:41:11.756Z,5.45
2022-08-26T03:41:45.105Z,7.35
2022-08-26T03:42:17.144Z,6.32
2022-08-26T03:42:53.373Z,3.10
2022-08-26T03:43:26.811Z,9.65
2022-08-26T03:44:01.702Z,4.22
2022-08-26T03:44:34.044Z,7.30
2022-08-26T03:45:07.620Z,6.13
2022-08-26T03:45:40.896Z,6.55
2022-08-26T03:46:12.953Z,6.43
2022-08-26T03:46:45.047Z,5.47
2022-08-26T03:47:17.513Z,4.85
2022-08-26T03:47:49.575Z,4.32
2022-08-26T03:48:21.577Z,4.80
2022-08-26T03:48:53.591Z,4.18
2022-08-26T03:49:25.882Z,5.20
2022-08-26T03:50:01.058Z,7.28
2022-08-26T03:50:34.391Z,6.45
2022-08-26T03:51:18.311Z,5.80
2022-08-26T03:51:51.549Z,5.20
2022-08-26T03:52:23.854Z,4.78
2022-08-26T03:52:56.179Z,5.32
2022-08-26T03:53:28.491Z,6.15
2022-08-26T03:54:00.714Z,8.93
2022-08-26T03:54:34.696Z,8.10
2022-08-26T03:55:06.988Z,4.53
2022-08-26T03:55:39.014Z,7.03
2022-08-26T03:56:11.211Z,4.82
2022-08-26T03:56:43.296Z,4.70
2022-08-26T03:57:18.522Z,5.13
2022-08-26T03:57:51.895Z,5.28
2022-08-26T03:58:26.968Z,4.32
2022-08-26T03:58:59.944Z,5.30
2022-08-26T03:59:32.317Z,4.65
2022-08-26T04:00:06.881Z,7.68
2022-08-26T04:00:40.808Z,7.18
2022-08-26T04:01:13.468Z,5.20
2022-08-26T04:01:48.360Z,4.63
2022-08-26T04:02:20.400Z,6.10
2022-08-26T04:02:53.421Z,11.27
2022-08-26T04:03:44.452Z,4.50
2022-08-26T04:04:17.027Z,4.40
2022-08-26T04:04:49.049Z,5.10
2022-08-26T04:05:22.740Z,5.85
2022-08-26T04:05:54.852Z,7.28
2022-08-26T04:06:28.660Z,7.80
2022-08-26T04:07:00.972Z,5.85
2022-08-26T04:07:32.978Z,7.15
2022-08-26T04:08:05.983Z,4.47
2022-08-26T04:08:38.257Z,6.63
2022-08-26T04:09:12.322Z,7.18
2022-08-26T04:09:44.363Z,7.13
2022-08-26T04:10:20.031Z,4.68
2022-08-26T04:10:52.549Z,4.72
2022-08-26T04:11:26.752Z,7.28
2022-08-26T04:11:59.014Z,7.13
2022-08-26T04:12:31.193Z,6.53
2022-08-26T04:13:03.177Z,6.57
2022-08-26T04:13:36.048Z,6.03
2022-08-26T04:14:09.882Z,5.35
2022-08-26T04:14:42.501Z,6.03
2022-08-26T04:15:15.995Z,5.45
2022-08-26T04:15:50.628Z,5.38
2022-08-26T04:16:22.830Z,4.90
2022-08-26T04:16:58.406Z,3.50
2022-08-26T04:17:30.493Z,8.52
2022-08-26T04:18:02.510Z,2.97
2022-08-26T04:18:37.966Z,4.22
2022-08-26T04:19:19.217Z,7.10
2022-08-26T04:19:54.317Z,4.88
2022-08-26T04:20:26.961Z,3.80
2022-08-26T04:20:58.942Z,4.50
2022-08-26T04:21:31.202Z,7.38
2022-08-26T04:22:03.382Z,4.88
2022-08-26T04:22:35.381Z,4.53
2022-08-26T04:23:07.510Z,5.18
2022-08-26T04:23:47.694Z,7.18
2022-08-26T04:24:21.822Z,7.95
2022-08-26T04:24:53.832Z,3.97
2022-08-26T04:25:25.914Z,5.68
2022-08-26T04:25:58.265Z,4.70
2022-08-26T04:26:31.403Z,7.80
2022-08-26T04:27:04.129Z,4.82
2022-08-26T04:27:36.407Z,4.40
2022-08-26T04:28:09.076Z,6.45
2022-08-26T04:28:41.054Z,8.23
2022-08-26T04:29:14.981Z,5.53
2022-08-26T04:29:47.792Z,7.50
2022-08-26T04:30:21.884Z,5.47
2022-08-26T04:30:54.060Z,7.05
2022-08-26T04:31:26.296Z,9.10
2022-08-26T04:31:58.532Z,5.20
2022-08-26T04:32:30.627Z,5.70
2022-08-26T04:33:04.499Z,7.03
2022-08-26T04:33:45.925Z,7.35
2022-08-26T04:34:19.393Z,5.45
2022-08-26T04:34:51.427Z,7.90
2022-08-26T04:35:25.977Z,6.85
2022-08-26T04:36:02.427Z,6.43
2022-08-26T04:36:34.524Z,5.35
2022-08-26T04:37:08.279Z,5.05
2022-08-26T04:37:43.131Z,5.70
2022-08-26T04:38:16.207Z,5.45
2022-08-26T04:38:48.335Z,7.60
2022-08-26T04:39:20.747Z,5.00
2022-08-26T04:39:53.366Z,6.80
2022-08-26T04:40:27.592Z,6.75
2022-08-26T04:41:00.082Z,4.90
2022-08-26T04:41:32.252Z,5.97
2022-08-26T04:42:04.479Z,7.75
2022-08-26T04:42:36.561Z,6.18
2022-08-26T04:43:09.061Z,6.78
2022-08-26T04:43:41.747Z,6.22
2022-08-26T04:44:14.445Z,8.63
2022-08-26T04:44:46.425Z,8.32
2022-08-26T04:45:18.925Z,5.30
2022-08-26T04:45:55.108Z,3.15
2022-08-26T04:46:29.296Z,5.70
2022-08-26T04:47:02.959Z,4.53
2022-08-26T04:47:35.072Z,5.07
2022-08-26T04:48:07.212Z,5.78
2022-08-26T04:48:43.111Z,5.25
2022-08-26T04:49:15.117Z,5.47
2022-08-26T04:49:47.129Z,5.85
2022-08-26T04:50:20.702Z,6.88
2022-08-26T04:50:55.783Z,6.63
2022-08-26T04:51:28.146Z,7.68
2022-08-26T04:52:00.320Z,8.05
2022-08-26T04:52:32.432Z,7.45
2022-08-26T04:53:04.927Z,7.32
2022-08-26T04:53:37.628Z,8.70
2022-08-26T04:54:10.025Z,7.05
2022-08-26T04:54:43.419Z,5.13
2022-08-26T04:55:16.044Z,5.05
2022-08-26T04:55:48.547Z,6.63
2022-08-26T04:56:20.662Z,7.32
2022-08-26T04:56:52.746Z,7.15
2022-08-26T04:57:24.753Z,5.97
2022-08-26T04:57:56.860Z,7.93
2022-08-26T04:58:28.848Z,6.55
2022-08-26T04:59:01.709Z,6.82
2022-08-26T04:59:38.977Z,8.40
2022-08-26T05:00:13.024Z,8.75
2022-08-26T05:00:45.897Z,8.80
2022-08-26T05:01:18.569Z,6.68
2022-08-26T05:01:52.044Z,7.47
2022-08-26T05:02:24.156Z,4.63
2022-08-26T05:02:57.217Z,5.50
2022-08-26T05:03:30.282Z,9.00
2022-08-26T05:04:02.920Z,5.53
2022-08-26T05:04:43.329Z,5.40
2022-08-26T05:05:15.622Z,8.23
2022-08-26T05:05:50.782Z,7.38
2022-08-26T05:06:22.852Z,6.53
2022-08-26T05:06:59.388Z,5.90
2022-08-26T05:07:35.262Z,7.10
2022-08-26T05:08:07.351Z,6.65
2022-08-26T05:08:41.091Z,8.80
2022-08-26T05:09:13.539Z,4.60
2022-08-26T05:09:47.334Z,5.65
2022-08-26T05:10:19.418Z,4.45
2022-08-26T05:10:54.636Z,4.25
2022-08-26T05:11:27.865Z,6.03
2022-08-26T05:12:00.758Z,6.78
2022-08-26T05:12:32.799Z,6.82
2022-08-26T05:13:04.843Z,5.35
2022-08-26T05:13:43.337Z,5.13
2022-08-26T05:14:15.942Z,4.80
2022-08-26T05:14:48.077Z,7.38
2022-08-26T05:15:20.107Z,7.10
2022-08-26T05:15:52.511Z,6.63
2022-08-26T05:16:24.711Z,6.90
2022-08-26T05:16:56.744Z,9.75
2022-08-26T05:17:29.508Z,8.88
2022-08-26T05:18:03.459Z,6.35
2022-08-26T05:18:35.850Z,5.50
2022-08-26T05:19:08.407Z,5.72
2022-08-26T05:19:42.750Z,5.97
2022-08-26T05:20:15.120Z,6.35
2022-08-26T05:20:48.608Z,8.27
2022-08-26T05:21:23.798Z,8.57
2022-08-26T05:21:55.838Z,6.47
2022-08-26T05:22:27.824Z,9.10
2022-08-26T05:23:00.791Z,5.40
2022-08-26T05:23:35.086Z,7.22
2022-08-26T05:24:07.698Z,5.82
2022-08-26T05:24:39.750Z,6.30
2022-08-26T05:25:11.737Z,4.38
2022-08-26T05:25:45.100Z,6.03
2022-08-26T05:26:17.936Z,4.47
2022-08-26T05:26:56.550Z,4.65
2022-08-26T05:27:28.542Z,4.93
2022-08-26T05:28:02.658Z,4.63
2022-08-26T05:28:34.811Z,7.28
2022-08-26T05:29:07.318Z,7.72
2022-08-26T05:29:39.847Z,5.25
2022-08-26T05:30:12.032Z,9.82
2022-08-26T05:30:44.464Z,8.90
2022-08-26T05:31:18.673Z,6.93
2022-08-26T05:31:51.692Z,4.90
2022-08-26T05:32:23.710Z,5.68
2022-08-26T05:32:55.684Z,5.13
2022-08-26T05:33:27.684Z,5.05
2022-08-26T05:34:00.471Z,6.57
2022-08-26T05:34:37.428Z,3.80
2022-08-26T05:35:10.428Z,6.07
2022-08-26T05:35:43.011Z,7.78
2022-08-26T05:36:16.890Z,4.18
2022-08-26T05:36:49.908Z,4.55
2022-08-26T05:37:22.126Z,5.72
2022-08-26T05:37:54.148Z,7.47
2022-08-26T05:38:30.118Z,5.97
2022-08-26T05:39:04.218Z,5.75
2022-08-26T05:39:36.246Z,6.32
2022-08-26T05:40:08.937Z,6.50
2022-08-26T05:40:44.669Z,4.90
2022-08-26T05:41:18.338Z,3.95
2022-08-26T05:41:50.684Z,3.08
2022-08-26T05:42:22.665Z,6.38
2022-08-26T05:42:54.844Z,6.95
2022-08-26T05:43:26.834Z,4.57
2022-08-26T05:43:59.989Z,5.38
2022-08-26T05:44:50.120Z,4.32
2022-08-26T05:45:25.260Z,5.80
2022-08-26T05:46:05.573Z,5.22
2022-08-26T05:46:38.372Z,4.20
2022-08-26T05:47:10.532Z,4.70
2022-08-26T05:47:42.932Z,4.47
2022-08-26T05:48:16.227Z,6.32
2022-08-26T05:48:48.202Z,8.10
2022-08-26T05:49:20.360Z,5.45
2022-08-26T05:49:56.015Z,7.70
2022-08-26T05:50:28.079Z,5.43
2022-08-26T05:51:02.694Z,4.47
2022-08-26T05:51:35.035Z,4.07
2022-08-26T05:52:08.202Z,3.58
2022-08-26T05:52:42.706Z,4.43
2022-08-26T05:53:17.449Z,3.53
2022-08-26T05:53:54.585Z,3.10
2022-08-26T05:54:26.992Z,3.20
2022-08-26T05:54:59.031Z,4.28
2022-08-26T05:55:31.078Z,5.07
2022-08-26T05:56:03.854Z,4.20
2022-08-26T05:56:35.895Z,5.15
2022-08-26T05:57:07.997Z,5.03
2022-08-26T05:57:42.915Z,5.55
2022-08-26T05:58:15.386Z,3.10
2022-08-26T05:58:49.521Z,3.50
2022-08-26T05:59:24.743Z,7.10
2022-08-26T05:59:57.326Z,4.57
2022-08-26T06:00:29.638Z,3.60
2022-08-26T06:01:03.144Z,2.95
2022-08-26T06:01:36.141Z,2.70
2022-08-26T06:02:08.323Z,3.72
2022-08-26T06:02:40.941Z,3.80
2022-08-26T06:03:13.116Z,5.10
2022-08-26T06:03:46.599Z,3.67
2022-08-26T06:04:21.185Z,3.80
2022-08-26T06:04:53.238Z,2.85
2022-08-26T06:05:25.287Z,5.30
2022-08-26T06:05:57.607Z,3.85
2022-08-26T06:06:31.645Z,2.65
2022-08-26T06:07:03.779Z,3.70
2022-08-26T06:07:56.323Z,4.18
2022-08-26T06:08:28.339Z,4.65
2022-08-26T06:09:01.225Z,3.03
2022-08-26T06:09:36.212Z,5.45
2022-08-26T06:10:32.488Z,4.47
2022-08-26T06:11:06.930Z,6.40
2022-08-26T06:11:39.678Z,5.13
2022-08-26T06:12:12.967Z,2.47
2022-08-26T06:12:47.137Z,4.13
2022-08-26T06:13:24.003Z,2.40
2022-08-26T06:14:03.071Z,3.97
2022-08-26T06:14:36.107Z,5.25
2022-08-26T06:15:08.463Z,3.70
2022-08-26T06:15:45.645Z,3.28
2022-08-26T06:16:20.989Z,4.72
2022-08-26T06:16:53.009Z,3.75
2022-08-26T06:17:25.363Z,4.18
2022-08-26T06:17:57.821Z,5.40
2022-08-26T06:18:34.686Z,2.38
2022-08-26T06:19:10.614Z,4.90
2022-08-26T06:19:43.243Z,3.58
2022-08-26T06:20:15.560Z,4.18
2022-08-26T06:20:57.264Z,3.28
2022-08-26T06:21:31.276Z,2.30
2022-08-26T06:22:23.796Z,2.58
2022-08-26T06:23:14.777Z,2.30
2022-08-26T06:24:06.726Z,3.63
2022-08-26T06:24:57.854Z,4.90
2022-08-26T06:25:39.207Z,3.25
2022-08-26T06:26:11.904Z,4.18
2022-08-26T06:26:50.834Z,2.78
2022-08-26T06:27:23.073Z,4.22
2022-08-26T06:27:55.679Z,3.03
2022-08-26T06:28:27.882Z,5.20
2022-08-26T06:29:00.228Z,2.40
2022-08-26T06:29:34.949Z,3.30
2022-08-26T06:30:09.892Z,2.45
2022-08-26T06:30:42.611Z,3.88
2022-08-26T06:31:15.378Z,4.10
2022-08-26T06:31:47.719Z,3.30
2022-08-26T06:32:19.757Z,5.15
2022-08-26T06:32:52.020Z,4.22
2022-08-26T06:33:26.374Z,4.78
2022-08-26T06:33:59.079Z,4.32
2022-08-26T06:34:33.835Z,2.83
2022-08-26T06:35:06.224Z,2.88
2022-08-26T06:35:45.592Z,4.82
2022-08-26T06:36:19.365Z,2.67
2022-08-26T06:36:53.133Z,2.83
2022-08-26T06:37:25.353Z,3.25
2022-08-26T06:37:57.349Z,2.55
2022-08-26T06:38:29.435Z,4.30
2022-08-26T06:39:03.663Z,3.00
2022-08-26T06:39:35.694Z,2.92
2022-08-26T06:40:13.147Z,3.15
2022-08-26T06:40:49.785Z,2.72
2022-08-26T06:41:22.935Z,5.18
2022-08-26T06:41:56.141Z,3.67
2022-08-26T06:42:29.937Z,4.60
2022-08-26T06:43:03.720Z,3.35
2022-08-26T06:43:36.259Z,2.22
2022-08-26T06:44:08.310Z,1.77
2022-08-26T06:44:40.971Z,3.95
2022-08-26T06:45:13.122Z,4.03
2022-08-26T06:45:45.981Z,3.30
2022-08-26T06:46:21.695Z,3.67
2022-08-26T06:46:53.901Z,2.50
2022-08-26T06:47:25.923Z,3.55
2022-08-26T06:47:58.609Z,2.25
2022-08-26T06:48:30.616Z,3.40
2022-08-26T06:49:02.677Z,2.75
2022-08-26T06:49:34.651Z,3.25
2022-08-26T06:50:06.881Z,2.80
2022-08-26T06:50:38.975Z,3.05
2022-08-26T06:51:23.692Z,5.53
2022-08-26T06:51:58.249Z,3.97
2022-08-26T06:52:30.689Z,2.47
2022-08-26T06:53:02.669Z,3.00
2022-08-26T06:53:35.243Z,4.00
2022-08-26T06:54:07.741Z,5.05
2022-08-26T06:54:43.113Z,5.18
2022-08-26T06:55:16.423Z,4.70
2022-08-26T06:55:51.799Z,1.77
2022-08-26T06:56:24.805Z,2.95
2022-08-26T06:56:57.500Z,1.52
2022-08-26T06:57:32.788Z,3.50
2022-08-26T06:58:07.145Z,1.85
2022-08-26T06:58:39.804Z,2.42
2022-08-26T06:59:12.609Z,2.83
2022-08-26T06:59:44.639Z,2.88
2022-08-26T07:00:18.173Z,2.55
2022-08-26T07:00:52.416Z,2.60
2022-08-26T07:01:26.035Z,3.15
2022-08-26T07:01:58.151Z,3.13
2022-08-26T07:02:30.201Z,1.90
2022-08-26T07:03:03.408Z,2.78
2022-08-26T07:03:39.648Z,2.90
2022-08-26T07:04:14.481Z,2.10
2022-08-26T07:04:48.087Z,1.95
2022-08-26T07:05:23.618Z,4.35
2022-08-26T07:06:01.761Z,2.80
2022-08-26T07:06:36.514Z,3.85
2022-08-26T07:07:14.749Z,3.70
2022-08-26T07:07:47.389Z,2.13
2022-08-26T07:08:19.432Z,3.10
2022-08-26T07:08:52.791Z,2.88
2022-08-26T07:09:26.503Z,3.00
2022-08-26T07:09:58.604Z,2.47
2022-08-26T07:10:31.384Z,1.67
2022-08-26T07:11:10.170Z,1.73
2022-08-26T07:11:42.580Z,2.47
2022-08-26T07:12:14.617Z,4.40
2022-08-26T07:12:47.359Z,2.97
2022-08-26T07:13:30.898Z,3.55
2022-08-26T07:14:03.138Z,2.33
2022-08-26T07:14:35.142Z,2.63
2022-08-26T07:15:07.301Z,4.35
2022-08-26T07:15:41.461Z,2.63
2022-08-26T07:16:14.997Z,1.38
2022-08-26T07:16:47.539Z,2.70
2022-08-26T07:17:20.442Z,2.05
2022-08-26T07:17:52.539Z,1.65
2022-08-26T07:18:24.537Z,2.33
2022-08-26T07:18:57.379Z,2.38
2022-08-26T07:19:31.610Z,3.97
2022-08-26T07:20:06.969Z,4.00
2022-08-26T07:20:43.390Z,4.55
2022-08-26T07:21:17.314Z,3.47
2022-08-26T07:21:50.442Z,2.60
2022-08-26T07:22:22.495Z,4.05
2022-08-26T07:22:56.182Z,3.58
2022-08-26T07:23:28.289Z,2.70
2022-08-26T07:24:00.657Z,1.77
2022-08-26T07:24:35.350Z,3.83
2022-08-26T07:25:08.859Z,2.42
2022-08-26T07:25:42.049Z,1.33
2022-08-26T07:26:16.334Z,1.92
2022-08-26T07:26:48.342Z,3.53
2022-08-26T07:27:20.574Z,2.47
2022-08-26T07:27:54.032Z,4.63
2022-08-26T07:28:26.604Z,1.85
2022-08-26T07:28:59.430Z,2.08
2022-08-26T07:29:31.695Z,3.17
2022-08-26T07:30:04.816Z,1.98
2022-08-26T07:30:39.216Z,3.40
2022-08-26T07:31:13.349Z,2.42
2022-08-26T07:31:45.604Z,3.40
2022-08-26T07:32:20.658Z,1.35
2022-08-26T07:32:56.225Z,3.05